createdAt,value
2017-12-26T00:00:29.121Z,0
2017-12-26T00:01:37.217Z,0
2017-12-26T00:02:45.316Z,0
2017-12-26T00:03:53.388Z,0
2017-12-26T00:05:01.542Z,0
2017-12-26T00:06:09.571Z,0
2017-12-26T00:07:17.671Z,0
2017-12-26T00:08:25.759Z,0
2017-12-26T00:09:33.841Z,0
2017-12-26T00:10:41.916Z,0
2017-12-26T00:11:50.003Z,0
2017-12-26T00:12:58.099Z,0
2017-12-26T00:14:06.192Z,0
2017-12-26T00:15:14.260Z,0
2017-12-26T00:16:22.346Z,0
2017-12-26T00:17:30.446Z,0
2017-12-26T00:18:38.520Z,0
2017-12-26T00:19:46.610Z,0
2017-12-26T00:20:54.693Z,0
2017-12-26T00:22:02.781Z,0
2017-12-26T00:23:10.871Z,0
2017-12-26T00:24:18.963Z,0
2017-12-26T00:25:27.050Z,0
2017-12-26T00:26:35.134Z,0
2017-12-26T00:27:43.222Z,0
2017-12-26T00:28:51.317Z,0
2017-12-26T00:29:59.382Z,0
2017-12-26T00:31:07.470Z,0
2017-12-26T00:32:15.577Z,0
2017-12-26T00:33:23.643Z,0
2017-12-26T00:34:31.727Z,0
2017-12-26T00:35:39.814Z,0
2017-12-26T00:36:47.908Z,0
2017-12-26T00:37:55.995Z,0
2017-12-26T00:39:04.079Z,0
2017-12-26T00:40:12.186Z,0
2017-12-26T00:41:20.504Z,0
2017-12-26T00:42:28.340Z,0
2017-12-26T00:43:36.424Z,0
2017-12-26T00:44:44.514Z,0
2017-12-26T00:45:52.603Z,0
2017-12-26T00:47:00.685Z,0
2017-12-26T00:48:08.772Z,0
2017-12-26T00:49:16.858Z,0
2017-12-26T00:50:24.950Z,0
2017-12-26T00:51:33.030Z,0
2017-12-26T00:52:41.116Z,0
2017-12-26T00:53:49.582Z,0
2017-12-26T00:54:57.667Z,0
2017-12-26T00:56:05.755Z,0
2017-12-26T00:57:13.840Z,0
2017-12-26T00:58:21.929Z,0
2017-12-26T00:59:30.018Z,0
2017-12-26T01:00:38.156Z,0
2017-12-26T01:01:46.191Z,0
2017-12-26T01:02:54.283Z,0
2017-12-26T01:04:02.366Z,0
2017-12-26T01:05:10.444Z,0
2017-12-26T01:06:18.626Z,0
2017-12-26T01:07:26.618Z,0
2017-12-26T01:08:34.705Z,0
2017-12-26T01:09:42.791Z,0
2017-12-26T01:10:50.878Z,0
2017-12-26T01:11:58.962Z,0
2017-12-26T01:13:07.049Z,0
2017-12-26T01:14:15.135Z,0
2017-12-26T01:15:23.222Z,0
2017-12-26T01:16:31.316Z,0
2017-12-26T01:17:39.398Z,0
2017-12-26T01:18:47.495Z,0
2017-12-26T01:19:55.584Z,0
2017-12-26T01:21:03.670Z,0
2017-12-26T01:22:11.764Z,0
2017-12-26T01:23:19.843Z,0
2017-12-26T01:24:27.930Z,0
2017-12-26T01:25:36.018Z,0
2017-12-26T01:26:44.105Z,0
2017-12-26T01:27:52.209Z,0
2017-12-26T01:29:00.280Z,0
2017-12-26T01:30:08.377Z,0
2017-12-26T01:31:16.465Z,0
2017-12-26T01:32:24.553Z,0
2017-12-26T01:33:32.636Z,0
2017-12-26T01:34:40.726Z,0
2017-12-26T01:35:48.817Z,0
2017-12-26T01:36:56.905Z,0
2017-12-26T01:38:04.991Z,0
2017-12-26T01:39:13.090Z,0
2017-12-26T01:40:21.187Z,0
2017-12-26T01:41:29.277Z,0
2017-12-26T01:42:37.364Z,0
2017-12-26T01:43:45.451Z,0
2017-12-26T01:44:53.539Z,0
2017-12-26T01:46:01.624Z,0
2017-12-26T01:47:09.724Z,0
2017-12-26T01:48:17.794Z,0
2017-12-26T01:49:26.132Z,0
2017-12-26T01:50:33.965Z,0
2017-12-26T01:51:42.053Z,0
2017-12-26T01:52:50.139Z,0
2017-12-26T01:53:58.227Z,0
2017-12-26T01:55:06.311Z,0
2017-12-26T01:56:14.400Z,0
2017-12-26T01:57:22.486Z,0
2017-12-26T01:58:30.578Z,0
2017-12-26T01:59:38.664Z,0
2017-12-26T02:00:46.753Z,0
2017-12-26T02:01:54.852Z,0
2017-12-26T02:03:02.939Z,0
2017-12-26T02:04:11.042Z,0
2017-12-26T02:05:19.108Z,0
2017-12-26T02:06:27.195Z,0
2017-12-26T02:07:35.286Z,0
2017-12-26T02:08:43.371Z,0
2017-12-26T02:09:51.517Z,0
2017-12-26T02:10:59.560Z,0
2017-12-26T02:12:07.657Z,0
2017-12-26T02:13:15.742Z,0
2017-12-26T02:14:23.828Z,0
2017-12-26T02:15:31.925Z,0
2017-12-26T02:16:40.010Z,0
2017-12-26T02:17:48.096Z,0
2017-12-26T02:18:56.200Z,0
2017-12-26T02:20:04.276Z,0
2017-12-26T02:21:12.371Z,0
2017-12-26T02:22:20.451Z,0
2017-12-26T02:23:28.552Z,0
2017-12-26T02:24:36.653Z,0
2017-12-26T02:25:44.722Z,0
2017-12-26T02:26:52.817Z,0
2017-12-26T02:28:00.905Z,0
2017-12-26T02:29:08.989Z,0
2017-12-26T02:30:17.077Z,0
2017-12-26T02:31:25.163Z,0
2017-12-26T02:32:33.250Z,0
2017-12-26T02:33:41.337Z,0
2017-12-26T02:34:49.426Z,0
2017-12-26T02:35:57.511Z,0
2017-12-26T02:37:05.602Z,0
2017-12-26T02:38:13.683Z,0
2017-12-26T02:39:21.769Z,0
2017-12-26T02:40:29.855Z,0
2017-12-26T02:41:37.942Z,0
2017-12-26T02:42:46.028Z,0
2017-12-26T02:43:54.116Z,0
2017-12-26T02:45:02.397Z,0
2017-12-26T02:46:10.291Z,0
2017-12-26T02:47:18.376Z,0
2017-12-26T02:48:26.461Z,0
2017-12-26T02:49:34.551Z,0
2017-12-26T02:50:42.721Z,0
2017-12-26T02:51:50.718Z,0
2017-12-26T02:52:58.810Z,0
2017-12-26T02:54:06.892Z,0
2017-12-26T02:55:14.981Z,0
2017-12-26T02:56:23.068Z,0
2017-12-26T02:57:31.153Z,0
2017-12-26T02:58:39.239Z,0
2017-12-26T02:59:47.330Z,0
2017-12-26T03:00:55.412Z,0
2017-12-26T03:02:03.497Z,0
2017-12-26T03:03:11.930Z,0
2017-12-26T03:04:19.670Z,0
2017-12-26T03:05:27.756Z,0
2017-12-26T03:06:35.847Z,0
2017-12-26T03:07:43.932Z,0
2017-12-26T03:08:52.019Z,0
2017-12-26T03:10:00.104Z,0
2017-12-26T03:11:08.215Z,0
2017-12-26T03:12:16.283Z,0
2017-12-26T03:13:24.374Z,0
2017-12-26T03:14:32.459Z,0
2017-12-26T03:15:40.545Z,0
2017-12-26T03:16:48.631Z,0
2017-12-26T03:17:56.715Z,0
2017-12-26T03:19:04.842Z,0
2017-12-26T03:20:12.929Z,0
2017-12-26T03:21:21.014Z,0
2017-12-26T03:22:29.099Z,0
2017-12-26T03:23:37.190Z,0
2017-12-26T03:24:45.356Z,0
2017-12-26T03:25:53.359Z,0
2017-12-26T03:27:01.448Z,0
2017-12-26T03:28:09.533Z,0
2017-12-26T03:29:17.635Z,0
2017-12-26T03:30:25.705Z,0
2017-12-26T03:31:33.793Z,0
2017-12-26T03:32:41.877Z,0
2017-12-26T03:33:49.968Z,0
2017-12-26T03:34:58.049Z,0
2017-12-26T03:36:06.137Z,0
2017-12-26T03:37:14.239Z,0
2017-12-26T03:38:22.316Z,0
2017-12-26T03:39:30.394Z,0
2017-12-26T03:40:38.484Z,0
2017-12-26T03:41:46.580Z,0
2017-12-26T03:42:54.666Z,0
2017-12-26T03:44:02.763Z,0
2017-12-26T03:45:10.845Z,0
2017-12-26T03:46:18.952Z,0
2017-12-26T03:47:27.034Z,0
2017-12-26T03:48:35.127Z,0
2017-12-26T03:49:43.209Z,0
2017-12-26T03:50:51.293Z,0
2017-12-26T03:51:59.385Z,0
2017-12-26T03:53:07.552Z,0
2017-12-26T03:54:15.552Z,0
2017-12-26T03:55:23.677Z,0
2017-12-26T03:56:31.725Z,0
2017-12-26T03:57:39.815Z,0
2017-12-26T03:58:47.912Z,0
2017-12-26T03:59:55.992Z,0
2017-12-26T04:01:04.079Z,0
2017-12-26T04:02:12.164Z,0
2017-12-26T04:03:20.533Z,0
2017-12-26T04:04:28.350Z,0
2017-12-26T04:05:36.420Z,0
2017-12-26T04:06:44.507Z,0
2017-12-26T04:07:52.594Z,0
2017-12-26T04:09:00.687Z,0
2017-12-26T04:10:08.766Z,0
2017-12-26T04:11:16.852Z,0
2017-12-26T04:12:24.938Z,0
2017-12-26T04:13:33.024Z,0
2017-12-26T04:14:41.112Z,0
2017-12-26T04:15:49.201Z,0
2017-12-26T04:16:57.284Z,0
2017-12-26T04:18:05.379Z,0
2017-12-26T04:19:13.456Z,0
2017-12-26T04:20:21.543Z,0
2017-12-26T04:21:29.629Z,0
2017-12-26T04:22:37.732Z,0
2017-12-26T04:23:45.802Z,0
2017-12-26T04:24:53.887Z,0
2017-12-26T04:26:01.977Z,0
2017-12-26T04:27:10.060Z,0
2017-12-26T04:28:18.144Z,0
2017-12-26T04:29:26.227Z,0
2017-12-26T04:30:34.333Z,0
2017-12-26T04:31:42.403Z,0
2017-12-26T04:32:50.485Z,0
2017-12-26T04:33:58.572Z,0
2017-12-26T04:35:06.660Z,0
2017-12-26T04:36:14.745Z,0
2017-12-26T04:37:22.828Z,0
2017-12-26T04:38:30.913Z,0
2017-12-26T04:39:39.000Z,0
2017-12-26T04:40:47.086Z,0
2017-12-26T04:41:55.170Z,0
2017-12-26T04:43:03.267Z,0
2017-12-26T04:44:11.344Z,0
2017-12-26T04:45:19.431Z,0
2017-12-26T04:46:27.515Z,0
2017-12-26T04:47:35.598Z,0
2017-12-26T04:48:43.682Z,0
2017-12-26T04:49:51.768Z,0
2017-12-26T04:50:59.853Z,0
2017-12-26T04:52:07.940Z,0
2017-12-26T04:53:16.024Z,0
2017-12-26T04:54:24.147Z,0
2017-12-26T04:55:32.217Z,0
2017-12-26T04:56:40.305Z,0
2017-12-26T04:57:48.388Z,0
2017-12-26T04:58:56.472Z,0
2017-12-26T05:00:04.559Z,0
2017-12-26T05:01:12.653Z,0
2017-12-26T05:02:20.738Z,0
2017-12-26T05:03:28.822Z,0
2017-12-26T05:04:36.908Z,0
2017-12-26T05:05:45.001Z,0
2017-12-26T05:06:53.080Z,0
2017-12-26T05:08:01.166Z,0
2017-12-26T05:09:09.250Z,0
2017-12-26T05:10:17.335Z,0
2017-12-26T05:11:25.420Z,0
2017-12-26T05:12:33.503Z,0
2017-12-26T05:13:41.590Z,0
2017-12-26T05:14:49.685Z,0
2017-12-26T05:15:57.771Z,0
2017-12-26T05:17:05.855Z,0
2017-12-26T05:18:13.941Z,0
2017-12-26T05:19:22.024Z,0
2017-12-26T05:20:30.119Z,0
2017-12-26T05:21:38.204Z,0
2017-12-26T05:22:46.337Z,0
2017-12-26T05:23:54.424Z,0
2017-12-26T05:25:02.501Z,0
2017-12-26T05:26:10.597Z,0
2017-12-26T05:27:18.683Z,0
2017-12-26T05:28:26.765Z,0
2017-12-26T05:29:34.851Z,0
2017-12-26T05:30:42.959Z,0
2017-12-26T05:31:51.028Z,0
2017-12-26T05:32:59.108Z,0
2017-12-26T05:34:07.195Z,0
2017-12-26T05:35:15.298Z,0
2017-12-26T05:36:23.605Z,0
2017-12-26T05:37:31.688Z,0
2017-12-26T05:38:39.771Z,0
2017-12-26T05:39:47.859Z,0
2017-12-26T05:40:55.941Z,0
2017-12-26T05:42:04.028Z,0
2017-12-26T05:43:12.122Z,0
2017-12-26T05:44:20.203Z,0
2017-12-26T05:45:28.283Z,0
2017-12-26T05:46:36.367Z,0
2017-12-26T05:47:44.451Z,0
2017-12-26T05:48:52.539Z,0
2017-12-26T05:50:00.646Z,0
2017-12-26T05:51:08.708Z,0
2017-12-26T05:52:16.796Z,0
2017-12-26T05:53:24.877Z,0
2017-12-26T05:54:32.965Z,0
2017-12-26T05:55:41.049Z,0
2017-12-26T05:56:49.134Z,0
2017-12-26T05:57:57.222Z,0
2017-12-26T05:59:05.303Z,0
2017-12-26T06:00:13.385Z,0
2017-12-26T06:01:21.472Z,0
2017-12-26T06:02:29.554Z,0
2017-12-26T06:03:37.643Z,0
2017-12-26T06:04:45.727Z,0
2017-12-26T06:05:53.812Z,0
2017-12-26T06:07:01.895Z,0
2017-12-26T06:08:09.980Z,0
2017-12-26T06:09:18.066Z,0
2017-12-26T06:10:26.161Z,0
2017-12-26T06:11:34.244Z,0
2017-12-26T06:12:42.343Z,0
2017-12-26T06:13:50.419Z,0
2017-12-26T06:14:58.495Z,0
2017-12-26T06:16:06.579Z,0
2017-12-26T06:17:14.664Z,0
2017-12-26T06:18:22.749Z,0
2017-12-26T06:19:30.835Z,0
2017-12-26T06:20:38.946Z,0
2017-12-26T06:21:47.015Z,0
2017-12-26T06:22:55.098Z,0
2017-12-26T06:24:03.188Z,0
2017-12-26T06:25:11.268Z,0
2017-12-26T06:26:19.352Z,0
2017-12-26T06:27:27.440Z,0
2017-12-26T06:28:35.538Z,0
2017-12-26T06:29:43.607Z,0
2017-12-26T06:30:51.691Z,0
2017-12-26T06:31:59.776Z,0
2017-12-26T06:33:07.856Z,0
2017-12-26T06:34:15.944Z,0
2017-12-26T06:35:24.030Z,0
2017-12-26T06:36:32.118Z,0
2017-12-26T06:37:40.204Z,0
2017-12-26T06:38:48.286Z,0
2017-12-26T06:39:56.371Z,0
2017-12-26T06:41:04.555Z,0
2017-12-26T06:42:12.643Z,0
2017-12-26T06:43:20.726Z,0
2017-12-26T06:44:28.812Z,0
2017-12-26T06:45:36.894Z,0
2017-12-26T06:46:44.981Z,0
2017-12-26T06:47:53.069Z,0
2017-12-26T06:49:01.149Z,0
2017-12-26T06:50:09.243Z,0
2017-12-26T06:51:17.330Z,0
2017-12-26T06:52:25.414Z,0
2017-12-26T06:53:33.501Z,0
2017-12-26T06:54:41.584Z,0
2017-12-26T06:55:49.668Z,0
2017-12-26T06:56:57.752Z,0
2017-12-26T06:58:05.839Z,0
2017-12-26T06:59:13.935Z,0
2017-12-26T07:00:22.007Z,0
2017-12-26T07:01:30.091Z,0
2017-12-26T07:02:38.182Z,0
2017-12-26T07:03:46.262Z,0
2017-12-26T07:04:54.575Z,0
2017-12-26T07:06:02.439Z,0
2017-12-26T07:07:10.517Z,0
2017-12-26T07:08:18.602Z,0
2017-12-26T07:09:26.780Z,0
2017-12-26T07:10:34.771Z,0
2017-12-26T07:11:42.857Z,0
2017-12-26T07:12:50.941Z,0
2017-12-26T07:13:59.025Z,0
2017-12-26T07:15:07.132Z,0
2017-12-26T07:16:15.199Z,0
2017-12-26T07:17:23.280Z,0
2017-12-26T07:18:31.365Z,0
2017-12-26T07:19:39.452Z,0
2017-12-26T07:20:47.554Z,0
2017-12-26T07:21:55.620Z,0
2017-12-26T07:23:03.708Z,0
2017-12-26T07:24:11.795Z,4
2017-12-26T07:25:19.901Z,4
2017-12-26T07:26:27.985Z,4
2017-12-26T07:27:36.072Z,4
2017-12-26T07:28:44.160Z,4
2017-12-26T07:29:52.242Z,0
2017-12-26T07:31:00.323Z,0
2017-12-26T07:32:08.419Z,0
2017-12-26T07:33:16.585Z,4
2017-12-26T07:34:24.582Z,4
2017-12-26T07:35:32.680Z,0
2017-12-26T07:36:40.752Z,4
2017-12-26T07:37:48.997Z,4
2017-12-26T07:38:56.921Z,4
2017-12-26T07:40:05.006Z,4
2017-12-26T07:41:13.092Z,4
2017-12-26T07:42:21.180Z,4
2017-12-26T07:43:29.280Z,4
2017-12-26T07:44:37.344Z,4
2017-12-26T07:45:45.431Z,4
2017-12-26T07:46:53.528Z,4
2017-12-26T07:48:01.601Z,4
2017-12-26T07:49:09.684Z,4
2017-12-26T07:50:17.769Z,4
2017-12-26T07:51:25.855Z,4
2017-12-26T07:52:33.940Z,4
2017-12-26T07:53:42.031Z,4
2017-12-26T07:54:50.118Z,4
2017-12-26T07:55:58.204Z,4
2017-12-26T07:57:06.294Z,4
2017-12-26T07:58:14.370Z,4
2017-12-26T07:59:22.457Z,4
2017-12-26T08:00:30.585Z,4
2017-12-26T08:01:38.627Z,4
2017-12-26T08:02:46.712Z,4
2017-12-26T08:03:54.796Z,4
2017-12-26T08:05:02.881Z,8
2017-12-26T08:06:10.969Z,8
2017-12-26T08:07:19.053Z,4
2017-12-26T08:08:27.132Z,4
2017-12-26T08:09:35.239Z,4
2017-12-26T08:10:43.308Z,8
2017-12-26T08:11:51.396Z,4
2017-12-26T08:12:59.478Z,8
2017-12-26T08:14:07.564Z,8
2017-12-26T08:15:15.655Z,4
2017-12-26T08:16:23.742Z,8
2017-12-26T08:17:31.824Z,8
2017-12-26T08:18:39.910Z,8
2017-12-26T08:19:47.995Z,12
2017-12-26T08:20:56.089Z,12
2017-12-26T08:22:04.269Z,12
2017-12-26T08:23:12.260Z,12
2017-12-26T08:24:20.364Z,12
2017-12-26T08:25:28.439Z,12
2017-12-26T08:26:36.523Z,20
2017-12-26T08:27:44.608Z,16
2017-12-26T08:28:52.703Z,20
2017-12-26T08:30:00.779Z,20
2017-12-26T08:31:09.088Z,20
2017-12-26T08:32:32.214Z,20
2017-12-26T08:33:25.030Z,20
2017-12-26T08:34:33.115Z,20
2017-12-26T08:35:41.201Z,16
2017-12-26T08:36:49.291Z,20
2017-12-26T08:37:57.381Z,20
2017-12-26T08:39:05.456Z,24
2017-12-26T08:40:13.541Z,28
2017-12-26T08:41:21.626Z,32
2017-12-26T08:42:29.708Z,28
2017-12-26T08:43:37.790Z,28
2017-12-26T08:44:45.878Z,20
2017-12-26T08:45:53.962Z,16
2017-12-26T08:47:02.063Z,20
2017-12-26T08:48:10.137Z,16
2017-12-26T08:49:18.220Z,16
2017-12-26T08:50:26.304Z,12
2017-12-26T08:51:34.390Z,12
2017-12-26T08:52:42.470Z,12
2017-12-26T08:53:50.553Z,12
2017-12-26T08:54:58.636Z,12
2017-12-26T08:56:06.729Z,8
2017-12-26T08:57:14.816Z,12
2017-12-26T08:58:22.917Z,12
2017-12-26T08:59:30.992Z,8
2017-12-26T09:00:39.074Z,8
2017-12-26T09:01:47.160Z,12
2017-12-26T09:02:55.250Z,12
2017-12-26T09:04:03.332Z,12
2017-12-26T09:05:11.417Z,16
2017-12-26T09:06:19.501Z,16
2017-12-26T09:07:27.589Z,24
2017-12-26T09:08:35.672Z,32
2017-12-26T09:09:43.754Z,24
2017-12-26T09:10:51.839Z,12
2017-12-26T09:11:59.932Z,16
2017-12-26T09:13:08.009Z,16
2017-12-26T09:14:16.093Z,12
2017-12-26T09:15:24.177Z,12
2017-12-26T09:16:32.423Z,8
2017-12-26T09:17:40.355Z,12
2017-12-26T09:18:48.431Z,8
2017-12-26T09:19:56.518Z,12
2017-12-26T09:21:04.602Z,12
2017-12-26T09:22:12.691Z,12
2017-12-26T09:23:20.774Z,16
2017-12-26T09:24:28.856Z,16
2017-12-26T09:25:36.943Z,16
2017-12-26T09:26:45.038Z,16
2017-12-26T09:27:53.114Z,16
2017-12-26T09:29:01.200Z,16
2017-12-26T09:30:09.283Z,12
2017-12-26T09:31:17.373Z,16
2017-12-26T09:32:25.458Z,16
2017-12-26T09:33:33.537Z,16
2017-12-26T09:34:41.624Z,16
2017-12-26T09:35:49.709Z,16
2017-12-26T09:36:57.801Z,12
2017-12-26T09:38:05.879Z,16
2017-12-26T09:39:13.964Z,16
2017-12-26T09:40:22.049Z,16
2017-12-26T09:41:30.135Z,12
2017-12-26T09:42:38.227Z,16
2017-12-26T09:43:46.309Z,12
2017-12-26T09:44:54.817Z,16
2017-12-26T09:46:02.480Z,16
2017-12-26T09:47:10.561Z,12
2017-12-26T09:48:18.645Z,16
2017-12-26T09:49:26.728Z,16
2017-12-26T09:50:34.822Z,16
2017-12-26T09:51:42.914Z,16
2017-12-26T09:52:50.993Z,12
2017-12-26T09:53:59.094Z,12
2017-12-26T09:55:07.164Z,16
2017-12-26T09:56:15.250Z,12
2017-12-26T09:57:23.343Z,16
2017-12-26T09:58:31.419Z,16
2017-12-26T09:59:39.506Z,16
2017-12-26T10:00:47.872Z,16
2017-12-26T10:01:55.676Z,16
2017-12-26T10:03:03.760Z,20
2017-12-26T10:04:11.846Z,16
2017-12-26T10:05:19.931Z,16
2017-12-26T10:06:28.017Z,12
2017-12-26T10:07:36.101Z,16
2017-12-26T10:08:44.186Z,16
2017-12-26T10:09:52.291Z,20
2017-12-26T10:11:00.360Z,16
2017-12-26T10:12:08.464Z,12
2017-12-26T10:13:16.530Z,16
2017-12-26T10:14:24.614Z,12
2017-12-26T10:15:32.698Z,12
2017-12-26T10:16:40.784Z,16
2017-12-26T10:17:48.877Z,12
2017-12-26T10:18:57.040Z,16
2017-12-26T10:20:05.052Z,16
2017-12-26T10:21:13.139Z,16
2017-12-26T10:22:21.225Z,16
2017-12-26T10:23:29.322Z,16
2017-12-26T10:24:37.418Z,12
2017-12-26T10:25:45.503Z,12
2017-12-26T10:26:53.590Z,12
2017-12-26T10:28:01.676Z,16
2017-12-26T10:29:09.757Z,16
2017-12-26T10:30:17.843Z,16
2017-12-26T10:31:25.932Z,16
2017-12-26T10:32:34.014Z,16
2017-12-26T10:33:42.101Z,16
2017-12-26T10:34:50.183Z,12
2017-12-26T10:35:58.281Z,16
2017-12-26T10:37:06.363Z,16
2017-12-26T10:38:14.444Z,20
2017-12-26T10:39:22.538Z,20
2017-12-26T10:40:30.901Z,16
2017-12-26T10:41:38.993Z,16
2017-12-26T10:42:47.074Z,16
2017-12-26T10:43:55.159Z,16
2017-12-26T10:45:03.244Z,12
2017-12-26T10:46:11.329Z,16
2017-12-26T10:47:19.417Z,16
2017-12-26T10:48:27.498Z,20
2017-12-26T10:49:35.585Z,16
2017-12-26T10:50:43.677Z,20
2017-12-26T10:51:51.763Z,16
2017-12-26T10:52:59.851Z,16
2017-12-26T10:54:07.941Z,16
2017-12-26T10:55:16.020Z,16
2017-12-26T10:56:24.106Z,16
2017-12-26T10:57:32.208Z,20
2017-12-26T10:58:40.275Z,16
2017-12-26T10:59:48.366Z,16
2017-12-26T11:00:56.464Z,20
2017-12-26T11:02:04.532Z,24
2017-12-26T11:03:12.616Z,20
2017-12-26T11:04:20.707Z,16
2017-12-26T11:05:28.794Z,20
2017-12-26T11:06:36.877Z,20
2017-12-26T11:07:44.964Z,20
2017-12-26T11:08:53.052Z,24
2017-12-26T11:10:04.679Z,24
2017-12-26T11:11:12.131Z,20
2017-12-26T11:12:20.226Z,20
2017-12-26T11:13:28.307Z,16
2017-12-26T11:14:36.391Z,20
2017-12-26T11:15:44.478Z,20
2017-12-26T11:16:52.564Z,16
2017-12-26T11:18:00.651Z,16
2017-12-26T11:19:08.735Z,16
2017-12-26T11:20:16.819Z,12
2017-12-26T11:21:24.914Z,16
2017-12-26T11:22:33.035Z,16
2017-12-26T11:23:41.073Z,16
2017-12-26T11:24:49.189Z,16
2017-12-26T11:25:57.263Z,16
2017-12-26T11:27:05.331Z,16
2017-12-26T11:28:13.433Z,16
2017-12-26T11:29:21.506Z,16
2017-12-26T11:30:29.586Z,12
2017-12-26T11:31:37.671Z,16
2017-12-26T11:32:45.759Z,16
2017-12-26T11:33:53.841Z,12
2017-12-26T11:35:01.931Z,12
2017-12-26T11:36:10.034Z,16
2017-12-26T11:37:18.101Z,12
2017-12-26T11:38:26.189Z,16
2017-12-26T11:39:34.291Z,12
2017-12-26T11:40:42.363Z,16
2017-12-26T11:41:50.449Z,16
2017-12-26T11:42:58.617Z,16
2017-12-26T11:44:06.611Z,20
2017-12-26T11:45:14.697Z,20
2017-12-26T11:46:22.784Z,24
2017-12-26T11:47:30.873Z,24
2017-12-26T11:48:38.955Z,24
2017-12-26T11:49:47.066Z,20
2017-12-26T11:50:55.152Z,24
2017-12-26T11:52:03.236Z,20
2017-12-26T11:53:11.562Z,20
2017-12-26T11:54:19.648Z,24
2017-12-26T11:55:27.733Z,20
2017-12-26T11:56:35.820Z,20
2017-12-26T11:57:43.907Z,20
2017-12-26T11:58:51.991Z,20
2017-12-26T12:00:00.082Z,20
2017-12-26T12:01:08.168Z,20
2017-12-26T12:02:16.253Z,20
2017-12-26T12:03:24.338Z,20
2017-12-26T12:04:32.447Z,20
2017-12-26T12:05:40.517Z,20
2017-12-26T12:06:48.598Z,20
2017-12-26T12:07:56.683Z,20
2017-12-26T12:09:04.766Z,20
2017-12-26T12:10:12.852Z,20
2017-12-26T12:11:20.939Z,20
2017-12-26T12:12:29.025Z,20
2017-12-26T12:13:37.112Z,20
2017-12-26T12:14:45.198Z,20
2017-12-26T12:15:53.282Z,20
2017-12-26T12:17:01.385Z,20
2017-12-26T12:18:09.462Z,20
2017-12-26T12:19:17.536Z,20
2017-12-26T12:20:25.622Z,20
2017-12-26T12:21:33.712Z,20
2017-12-26T12:22:41.800Z,20
2017-12-26T12:23:49.939Z,16
2017-12-26T12:24:57.972Z,16
2017-12-26T12:26:06.054Z,16
2017-12-26T12:27:14.142Z,16
2017-12-26T12:28:22.249Z,16
2017-12-26T12:29:30.343Z,16
2017-12-26T12:30:38.419Z,16
2017-12-26T12:31:46.504Z,12
2017-12-26T12:32:54.587Z,16
2017-12-26T12:34:02.675Z,16
2017-12-26T12:35:10.764Z,16
2017-12-26T12:36:18.846Z,16
2017-12-26T12:37:26.934Z,16
2017-12-26T12:38:35.018Z,12
2017-12-26T12:39:43.105Z,16
2017-12-26T12:40:51.192Z,12
2017-12-26T12:41:59.273Z,12
2017-12-26T12:43:07.365Z,16
2017-12-26T12:44:15.450Z,12
2017-12-26T12:45:23.531Z,16
2017-12-26T12:46:31.615Z,16
2017-12-26T12:47:39.701Z,16
2017-12-26T12:48:47.787Z,12
2017-12-26T12:49:55.872Z,16
2017-12-26T12:51:03.958Z,16
2017-12-26T12:52:12.043Z,16
2017-12-26T12:53:20.137Z,16
2017-12-26T12:54:28.218Z,16
2017-12-26T12:55:36.322Z,16
2017-12-26T12:56:44.403Z,16
2017-12-26T12:57:52.473Z,16
2017-12-26T12:59:00.558Z,12
2017-12-26T13:00:08.647Z,12
2017-12-26T13:01:16.732Z,16
2017-12-26T13:02:24.818Z,16
2017-12-26T13:03:32.904Z,16
2017-12-26T13:04:41.027Z,16
2017-12-26T13:05:49.083Z,16
2017-12-26T13:06:57.173Z,12
2017-12-26T13:08:05.261Z,12
2017-12-26T13:09:13.340Z,16
2017-12-26T13:10:21.546Z,12
2017-12-26T13:11:29.811Z,16
2017-12-26T13:12:37.897Z,16
2017-12-26T13:13:45.984Z,16
2017-12-26T13:14:54.070Z,12
2017-12-26T13:16:02.155Z,16
2017-12-26T13:17:10.757Z,16
2017-12-26T13:18:18.847Z,12
2017-12-26T13:19:26.930Z,16
2017-12-26T13:20:35.053Z,16
2017-12-26T13:21:43.102Z,16
2017-12-26T13:22:51.196Z,16
2017-12-26T13:23:59.283Z,12
2017-12-26T13:25:07.367Z,12
2017-12-26T13:26:15.450Z,16
2017-12-26T13:27:23.537Z,12
2017-12-26T13:28:31.628Z,12
2017-12-26T13:29:39.711Z,12
2017-12-26T13:30:47.852Z,16
2017-12-26T13:31:55.881Z,12
2017-12-26T13:33:03.966Z,12
2017-12-26T13:34:12.052Z,12
2017-12-26T13:35:20.136Z,16
2017-12-26T13:36:28.242Z,16
2017-12-26T13:37:36.308Z,12
2017-12-26T13:38:44.410Z,16
2017-12-26T13:39:52.482Z,12
2017-12-26T13:41:00.565Z,12
2017-12-26T13:42:08.649Z,12
2017-12-26T13:43:16.750Z,12
2017-12-26T13:44:24.819Z,8
2017-12-26T13:45:32.905Z,12
2017-12-26T13:46:40.994Z,12
2017-12-26T13:47:49.076Z,12
2017-12-26T13:48:57.167Z,12
2017-12-26T13:50:05.266Z,12
2017-12-26T13:51:13.345Z,8
2017-12-26T13:52:21.433Z,12
2017-12-26T13:53:29.523Z,12
2017-12-26T13:54:37.621Z,8
2017-12-26T13:55:45.777Z,12
2017-12-26T13:56:53.860Z,8
2017-12-26T13:58:01.946Z,12
2017-12-26T13:59:10.032Z,8
2017-12-26T14:00:18.119Z,8
2017-12-26T14:01:26.211Z,8
2017-12-26T14:02:34.293Z,8
2017-12-26T14:03:42.375Z,8
2017-12-26T14:04:50.461Z,8
2017-12-26T14:05:58.552Z,8
2017-12-26T14:07:06.633Z,8
2017-12-26T14:08:14.810Z,8
2017-12-26T14:09:22.896Z,12
2017-12-26T14:10:30.988Z,8
2017-12-26T14:11:39.068Z,12
2017-12-26T14:12:47.175Z,8
2017-12-26T14:13:55.249Z,8
2017-12-26T14:15:03.334Z,8
2017-12-26T14:16:11.424Z,8
2017-12-26T14:17:19.507Z,12
2017-12-26T14:18:27.592Z,8
2017-12-26T14:19:35.677Z,8
2017-12-26T14:20:43.766Z,8
2017-12-26T14:21:51.848Z,12
2017-12-26T14:22:59.940Z,4
2017-12-26T14:24:08.020Z,8
2017-12-26T14:25:16.107Z,8
2017-12-26T14:26:24.195Z,8
2017-12-26T14:27:32.296Z,8
2017-12-26T14:28:40.365Z,8
2017-12-26T14:29:49.211Z,8
2017-12-26T14:30:57.296Z,8
2017-12-26T14:32:05.384Z,8
2017-12-26T14:33:13.472Z,8
2017-12-26T14:34:21.555Z,8
2017-12-26T14:35:29.640Z,8
2017-12-26T14:36:37.726Z,4
2017-12-26T14:37:45.815Z,8
2017-12-26T14:38:53.900Z,8
2017-12-26T14:40:01.978Z,4
2017-12-26T14:41:10.074Z,4
2017-12-26T14:42:18.166Z,8
2017-12-26T14:43:26.251Z,8
2017-12-26T14:44:34.340Z,4
2017-12-26T14:45:42.419Z,8
2017-12-26T14:46:50.515Z,4
2017-12-26T14:47:58.591Z,4
2017-12-26T14:49:06.676Z,4
2017-12-26T14:50:14.761Z,8
2017-12-26T14:51:22.851Z,4
2017-12-26T14:52:30.950Z,8
2017-12-26T14:53:39.028Z,4
2017-12-26T14:54:47.126Z,4
2017-12-26T14:55:55.217Z,4
2017-12-26T14:57:03.304Z,4
2017-12-26T14:58:11.389Z,4
2017-12-26T14:59:19.475Z,4
2017-12-26T15:00:27.561Z,4
2017-12-26T15:01:35.645Z,4
2017-12-26T15:02:43.731Z,4
2017-12-26T15:03:51.817Z,4
2017-12-26T15:04:59.903Z,0
2017-12-26T15:06:07.990Z,4
2017-12-26T15:07:16.074Z,4
2017-12-26T15:08:24.161Z,4
2017-12-26T15:09:32.371Z,4
2017-12-26T15:10:40.458Z,0
2017-12-26T15:11:48.543Z,0
2017-12-26T15:12:56.626Z,0
2017-12-26T15:14:04.712Z,0
2017-12-26T15:15:12.797Z,0
2017-12-26T15:16:20.884Z,0
2017-12-26T15:17:28.970Z,0
2017-12-26T15:18:37.057Z,0
2017-12-26T15:19:45.142Z,0
2017-12-26T15:20:53.243Z,0
2017-12-26T15:22:01.325Z,0
2017-12-26T15:23:09.410Z,0
2017-12-26T15:24:17.582Z,4
2017-12-26T15:25:25.601Z,4
2017-12-26T15:26:33.693Z,0
2017-12-26T15:27:41.772Z,0
2017-12-26T15:28:49.860Z,0
2017-12-26T15:29:57.944Z,0
2017-12-26T15:31:06.030Z,0
2017-12-26T15:32:14.122Z,0
2017-12-26T15:33:22.334Z,0
2017-12-26T15:34:30.313Z,0
2017-12-26T15:35:38.467Z,0
2017-12-26T15:36:46.469Z,0
2017-12-26T15:37:54.555Z,0
2017-12-26T15:39:02.640Z,0
2017-12-26T15:40:10.727Z,0
2017-12-26T15:41:18.814Z,0
2017-12-26T15:42:26.898Z,0
2017-12-26T15:43:34.986Z,0
2017-12-26T15:44:43.072Z,0
2017-12-26T15:45:51.188Z,0
2017-12-26T15:46:59.261Z,0
2017-12-26T15:48:07.342Z,0
2017-12-26T15:49:15.434Z,0
2017-12-26T15:50:23.517Z,0
2017-12-26T15:51:31.598Z,0
2017-12-26T15:52:39.685Z,0
2017-12-26T15:53:47.769Z,0
2017-12-26T15:54:55.859Z,0
2017-12-26T15:56:03.941Z,0
2017-12-26T15:57:12.027Z,0
2017-12-26T15:58:20.112Z,0
2017-12-26T15:59:28.210Z,0
2017-12-26T16:00:36.304Z,0
2017-12-26T16:01:44.370Z,0
2017-12-26T16:02:52.458Z,0
2017-12-26T16:04:00.543Z,0
2017-12-26T16:05:08.628Z,0
2017-12-26T16:06:16.715Z,0
2017-12-26T16:07:24.830Z,0
2017-12-26T16:08:32.921Z,0
2017-12-26T16:09:41.000Z,0
2017-12-26T16:10:49.100Z,0
2017-12-26T16:11:57.205Z,0
2017-12-26T16:13:05.300Z,0
2017-12-26T16:14:13.383Z,0
2017-12-26T16:15:21.464Z,0
2017-12-26T16:16:29.661Z,0
2017-12-26T16:17:37.636Z,0
2017-12-26T16:18:45.718Z,0
2017-12-26T16:19:53.823Z,0
2017-12-26T16:21:01.896Z,0
2017-12-26T16:22:09.982Z,0
2017-12-26T16:23:18.072Z,0
2017-12-26T16:24:26.153Z,0
2017-12-26T16:25:34.239Z,0
2017-12-26T16:26:42.325Z,0
2017-12-26T16:27:50.436Z,0
2017-12-26T16:28:58.494Z,0
2017-12-26T16:30:06.588Z,0
2017-12-26T16:31:14.673Z,0
2017-12-26T16:32:22.758Z,0
2017-12-26T16:33:30.845Z,0
2017-12-26T16:34:38.941Z,0